Pagrindinis puslapis
METAR-TAF:

METAR-TAF

Oro uostai :

Rivas, Nikaragva

platuma: 11-25N, ilguma: 085-50W, Aukštis: 53 m

Dabartinis oras

Ataskaita buvo paskelbta 1 valandą ir 10 minutes, ne 23:00 UTC
Vėjas 4 kt iš Šiaurės/Šiaurės Rytų
Temperatūra 31°C
Drėgmė 66%
Slėgis 1008 hPa
Matomumas 10 km arba daugiau
Mažai debesys ne aukštis 1200 ft, Liūtiniai kamuoliniai debesys.
Išsisklaidę debesys ne aukštis 20000 ft

METAR: MNRS 212300Z 03004KT 9999 FEW012CB SCT200 31/24 Q1008 CB/N/S

Laikas: 18:10 (00:10 UTC)


TAF: trūkstamas

Orai ataskaitas ir orų prognozės (METAR, TAF).

turimą stotys yra geltonos ir raudonos taškus žemėlapyje.

Perkelti pele per norėdami pamatyti stoties vardą.

Tada spustelėkite, norėdami matyti oro stebėjimo ir prognozės.

Norėdami pakeisti žemėlapį: spustelėkite ant žalios mygtukų su juodo kryžiaus žemyn,; žalią mygtuką su brūkšneliu, jei norite nutolinti; arba žalių rodyklių gretimoms žemėlapius.


METAR-TAF: